sensor_id;sensor_type;location;lat;lon;timestamp;P1;durP1;ratioP1;P2;durP2;ratioP2
65753;SDS011;69207;47.502;18.940;2023-06-10T00:00:39;11.55;;;8.27;;
65753;SDS011;69207;47.502;18.940;2023-06-10T00:01:44;12.27;;;7.68;;
65753;SDS011;69207;47.502;18.940;2023-06-10T00:02:49;14.25;;;7.28;;
65753;SDS011;69207;47.502;18.940;2023-06-10T00:03:52;13.62;;;7.75;;
65753;SDS011;69207;47.502;18.940;2023-06-10T00:04:55;14.73;;;7.90;;
65753;SDS011;69207;47.502;18.940;2023-06-10T00:05:59;13.32;;;7.95;;
65753;SDS011;69207;47.502;18.940;2023-06-10T00:07:05;13.38;;;7.97;;
65753;SDS011;69207;47.502;18.940;2023-06-10T00:08:10;10.15;;;8.02;;
65753;SDS011;69207;47.502;18.940;2023-06-10T00:09:14;10.07;;;7.72;;
65753;SDS011;69207;47.502;18.940;2023-06-10T00:10:16;15.32;;;7.68;;
65753;SDS011;69207;47.502;18.940;2023-06-10T00:11:19;13.98;;;7.95;;
65753;SDS011;69207;47.502;18.940;2023-06-10T00:12:22;12.48;;;8.02;;
65753;SDS011;69207;47.502;18.940;2023-06-10T00:13:25;10.77;;;7.32;;
65753;SDS011;69207;47.502;18.940;2023-06-10T00:14:27;10.52;;;7.35;;
65753;SDS011;69207;47.502;18.940;2023-06-10T00:15:30;9.32;;;7.00;;
65753;SDS011;69207;47.502;18.940;2023-06-10T00:16:33;15.13;;;7.57;;
65753;SDS011;69207;47.502;18.940;2023-06-10T00:17:37;15.55;;;7.37;;
65753;SDS011;69207;47.502;18.940;2023-06-10T00:18:42;12.15;;;6.82;;
65753;SDS011;69207;47.502;18.940;2023-06-10T00:19:46;10.38;;;6.68;;
65753;SDS011;69207;47.502;18.940;2023-06-10T00:20:49;11.10;;;6.90;;
65753;SDS011;69207;47.502;18.940;2023-06-10T00:21:55;8.98;;;6.65;;
65753;SDS011;69207;47.502;18.940;2023-06-10T00:23:00;9.25;;;6.12;;
65753;SDS011;69207;47.502;18.940;2023-06-10T00:24:04;10.30;;;6.05;;
65753;SDS011;69207;47.502;18.940;2023-06-10T00:25:08;10.10;;;6.20;;
65753;SDS011;69207;47.502;18.940;2023-06-10T00:26:13;10.38;;;5.95;;
65753;SDS011;69207;47.502;18.940;2023-06-10T00:27:16;8.20;;;5.40;;
65753;SDS011;69207;47.502;18.940;2023-06-10T00:28:19;9.07;;;5.20;;
65753;SDS011;69207;47.502;18.940;2023-06-10T00:29:22;10.07;;;5.07;;
65753;SDS011;69207;47.502;18.940;2023-06-10T00:30:24;6.97;;;4.53;;
65753;SDS011;69207;47.502;18.940;2023-06-10T00:31:27;6.97;;;4.65;;
65753;SDS011;69207;47.502;18.940;2023-06-10T00:32:30;8.07;;;4.45;;
65753;SDS011;69207;47.502;18.940;2023-06-10T00:33:33;8.00;;;3.95;;
65753;SDS011;69207;47.502;18.940;2023-06-10T00:34:36;4.95;;;4.35;;
65753;SDS011;69207;47.502;18.940;2023-06-10T00:35:39;6.20;;;4.12;;
65753;SDS011;69207;47.502;18.940;2023-06-10T00:36:42;6.18;;;3.62;;
65753;SDS011;69207;47.502;18.940;2023-06-10T00:37:45;8.35;;;3.95;;
65753;SDS011;69207;47.502;18.940;2023-06-10T00:38:48;7.45;;;3.83;;
65753;SDS011;69207;47.502;18.940;2023-06-10T00:39:51;5.43;;;3.70;;
65753;SDS011;69207;47.502;18.940;2023-06-10T00:40:53;4.12;;;3.62;;
65753;SDS011;69207;47.502;18.940;2023-06-10T00:41:56;6.00;;;3.78;;
65753;SDS011;69207;47.502;18.940;2023-06-10T00:42:59;7.15;;;3.67;;
65753;SDS011;69207;47.502;18.940;2023-06-10T00:44:02;9.00;;;3.62;;
65753;SDS011;69207;47.502;18.940;2023-06-10T00:45:05;4.15;;;3.40;;
65753;SDS011;69207;47.502;18.940;2023-06-10T00:46:09;5.68;;;3.47;;
65753;SDS011;69207;47.502;18.940;2023-06-10T00:47:14;9.50;;;3.95;;
65753;SDS011;69207;47.502;18.940;2023-06-10T00:48:17;5.90;;;3.50;;
65753;SDS011;69207;47.502;18.940;2023-06-10T00:49:21;5.80;;;3.33;;
65753;SDS011;69207;47.502;18.940;2023-06-10T00:50:24;8.30;;;2.95;;
65753;SDS011;69207;47.502;18.940;2023-06-10T00:51:27;6.35;;;3.28;;
65753;SDS011;69207;47.502;18.940;2023-06-10T00:52:29;6.32;;;3.03;;
65753;SDS011;69207;47.502;18.940;2023-06-10T00:53:32;6.97;;;3.35;;
65753;SDS011;69207;47.502;18.940;2023-06-10T00:54:36;13.85;;;3.47;;
65753;SDS011;69207;47.502;18.940;2023-06-10T00:55:40;8.18;;;3.40;;
65753;SDS011;69207;47.502;18.940;2023-06-10T00:56:43;4.40;;;3.50;;
65753;SDS011;69207;47.502;18.940;2023-06-10T00:57:46;3.50;;;2.97;;
65753;SDS011;69207;47.502;18.940;2023-06-10T00:58:53;4.80;;;2.97;;
65753;SDS011;69207;47.502;18.940;2023-06-10T00:59:56;4.90;;;3.00;;
65753;SDS011;69207;47.502;18.940;2023-06-10T01:00:59;13.55;;;3.83;;
65753;SDS011;69207;47.502;18.940;2023-06-10T01:02:03;5.70;;;3.15;;
65753;SDS011;69207;47.502;18.940;2023-06-10T01:03:06;6.30;;;3.05;;
65753;SDS011;69207;47.502;18.940;2023-06-10T01:04:11;4.28;;;3.00;;
65753;SDS011;69207;47.502;18.940;2023-06-10T01:05:14;4.82;;;2.60;;
65753;SDS011;69207;47.502;18.940;2023-06-10T01:07:35;7.60;;;3.20;;
65753;SDS011;69207;47.502;18.940;2023-06-10T01:10:02;8.75;;;2.67;;
65753;SDS011;69207;47.502;18.940;2023-06-10T01:11:20;7.53;;;2.80;;
65753;SDS011;69207;47.502;18.940;2023-06-10T01:12:39;5.53;;;2.80;;
65753;SDS011;69207;47.502;18.940;2023-06-10T01:13:51;7.57;;;3.00;;
65753;SDS011;69207;47.502;18.940;2023-06-10T01:14:58;3.10;;;2.80;;
65753;SDS011;69207;47.502;18.940;2023-06-10T01:16:02;2.75;;;2.55;;
65753;SDS011;69207;47.502;18.940;2023-06-10T01:17:06;4.65;;;2.78;;
65753;SDS011;69207;47.502;18.940;2023-06-10T01:18:12;3.75;;;3.08;;
65753;SDS011;69207;47.502;18.940;2023-06-10T01:19:19;7.10;;;3.12;;
65753;SDS011;69207;47.502;18.940;2023-06-10T01:20:21;4.72;;;2.87;;
65753;SDS011;69207;47.502;18.940;2023-06-10T01:21:24;5.35;;;3.00;;
65753;SDS011;69207;47.502;18.940;2023-06-10T01:22:28;4.47;;;2.60;;
65753;SDS011;69207;47.502;18.940;2023-06-10T01:23:34;8.52;;;3.78;;
65753;SDS011;69207;47.502;18.940;2023-06-10T01:24:37;3.65;;;2.87;;
65753;SDS011;69207;47.502;18.940;2023-06-10T01:25:47;6.62;;;2.80;;
65753;SDS011;69207;47.502;18.940;2023-06-10T01:26:57;8.38;;;2.80;;
65753;SDS011;69207;47.502;18.940;2023-06-10T01:28:11;6.10;;;2.67;;
65753;SDS011;69207;47.502;18.940;2023-06-10T01:29:21;5.82;;;2.90;;
65753;SDS011;69207;47.502;18.940;2023-06-10T01:30:38;3.65;;;2.42;;
65753;SDS011;69207;47.502;18.940;2023-06-10T01:32:08;5.50;;;3.03;;
65753;SDS011;69207;47.502;18.940;2023-06-10T01:33:23;7.50;;;2.87;;
65753;SDS011;69207;47.502;18.940;2023-06-10T01:34:30;8.88;;;3.03;;
65753;SDS011;69207;47.502;18.940;2023-06-10T01:35:34;4.93;;;2.58;;
65753;SDS011;69207;47.502;18.940;2023-06-10T01:36:41;8.23;;;2.78;;
65753;SDS011;69207;47.502;18.940;2023-06-10T01:37:48;10.50;;;3.47;;
65753;SDS011;69207;47.502;18.940;2023-06-10T01:38:53;5.55;;;3.15;;
65753;SDS011;69207;47.502;18.940;2023-06-10T01:39:57;5.03;;;3.08;;
65753;SDS011;69207;47.502;18.940;2023-06-10T01:41:01;9.02;;;2.87;;
65753;SDS011;69207;47.502;18.940;2023-06-10T01:42:05;12.10;;;3.05;;
65753;SDS011;69207;47.502;18.940;2023-06-10T01:43:09;6.90;;;2.60;;
65753;SDS011;69207;47.502;18.940;2023-06-10T01:44:11;6.18;;;3.10;;
65753;SDS011;69207;47.502;18.940;2023-06-10T01:45:14;3.85;;;2.70;;
65753;SDS011;69207;47.502;18.940;2023-06-10T01:46:17;5.60;;;2.75;;
65753;SDS011;69207;47.502;18.940;2023-06-10T01:47:23;4.00;;;3.15;;
65753;SDS011;69207;47.502;18.940;2023-06-10T01:48:26;6.65;;;2.60;;
65753;SDS011;69207;47.502;18.940;2023-06-10T01:49:29;3.08;;;2.78;;
65753;SDS011;69207;47.502;18.940;2023-06-10T01:50:32;4.68;;;3.22;;
65753;SDS011;69207;47.502;18.940;2023-06-10T01:51:35;4.20;;;2.78;;
65753;SDS011;69207;47.502;18.940;2023-06-10T01:52:38;6.85;;;3.33;;
65753;SDS011;69207;47.502;18.940;2023-06-10T01:53:41;6.47;;;2.90;;
65753;SDS011;69207;47.502;18.940;2023-06-10T01:54:43;8.90;;;3.22;;
65753;SDS011;69207;47.502;18.940;2023-06-10T01:55:46;5.00;;;3.30;;
65753;SDS011;69207;47.502;18.940;2023-06-10T01:56:49;5.62;;;2.60;;
65753;SDS011;69207;47.502;18.940;2023-06-10T01:57:52;9.48;;;2.95;;
65753;SDS011;69207;47.502;18.940;2023-06-10T01:58:54;6.97;;;3.33;;
65753;SDS011;69207;47.502;18.940;2023-06-10T02:00:01;6.95;;;2.58;;
65753;SDS011;69207;47.502;18.940;2023-06-10T02:01:05;5.95;;;3.00;;
65753;SDS011;69207;47.502;18.940;2023-06-10T02:02:09;4.57;;;2.60;;
65753;SDS011;69207;47.502;18.940;2023-06-10T02:03:13;6.45;;;2.75;;
65753;SDS011;69207;47.502;18.940;2023-06-10T02:04:16;5.00;;;2.62;;
65753;SDS011;69207;47.502;18.940;2023-06-10T02:05:19;2.50;;;2.30;;
65753;SDS011;69207;47.502;18.940;2023-06-10T02:06:21;8.68;;;3.12;;
65753;SDS011;69207;47.502;18.940;2023-06-10T02:07:24;2.80;;;2.50;;
65753;SDS011;69207;47.502;18.940;2023-06-10T02:08:27;5.95;;;2.65;;
65753;SDS011;69207;47.502;18.940;2023-06-10T02:09:30;4.80;;;2.87;;
65753;SDS011;69207;47.502;18.940;2023-06-10T02:10:33;7.68;;;2.78;;
65753;SDS011;69207;47.502;18.940;2023-06-10T02:11:36;3.20;;;2.75;;
65753;SDS011;69207;47.502;18.940;2023-06-10T02:12:39;5.53;;;2.58;;
65753;SDS011;69207;47.502;18.940;2023-06-10T02:13:41;3.70;;;2.72;;
65753;SDS011;69207;47.502;18.940;2023-06-10T02:14:44;3.50;;;2.50;;
65753;SDS011;69207;47.502;18.940;2023-06-10T02:15:47;9.98;;;3.00;;
65753;SDS011;69207;47.502;18.940;2023-06-10T02:16:50;5.87;;;2.70;;
65753;SDS011;69207;47.502;18.940;2023-06-10T02:17:53;3.33;;;3.03;;
65753;SDS011;69207;47.502;18.940;2023-06-10T02:18:57;6.85;;;3.37;;
65753;SDS011;69207;47.502;18.940;2023-06-10T02:20:00;2.95;;;2.65;;
65753;SDS011;69207;47.502;18.940;2023-06-10T02:21:10;7.03;;;3.72;;
65753;SDS011;69207;47.502;18.940;2023-06-10T02:22:13;7.45;;;2.83;;
65753;SDS011;69207;47.502;18.940;2023-06-10T02:23:16;9.77;;;2.55;;
65753;SDS011;69207;47.502;18.940;2023-06-10T02:24:18;7.22;;;2.42;;
65753;SDS011;69207;47.502;18.940;2023-06-10T02:25:21;6.05;;;2.55;;
65753;SDS011;69207;47.502;18.940;2023-06-10T02:26:24;10.18;;;2.78;;
65753;SDS011;69207;47.502;18.940;2023-06-10T02:27:28;8.27;;;2.78;;
65753;SDS011;69207;47.502;18.940;2023-06-10T02:28:31;8.23;;;2.80;;
65753;SDS011;69207;47.502;18.940;2023-06-10T02:29:34;5.90;;;2.67;;
65753;SDS011;69207;47.502;18.940;2023-06-10T02:30:40;5.50;;;2.83;;
65753;SDS011;69207;47.502;18.940;2023-06-10T02:31:44;3.30;;;2.62;;
65753;SDS011;69207;47.502;18.940;2023-06-10T02:32:46;4.95;;;2.80;;
65753;SDS011;69207;47.502;18.940;2023-06-10T02:33:50;5.78;;;2.83;;
65753;SDS011;69207;47.502;18.940;2023-06-10T02:34:53;7.70;;;2.90;;
65753;SDS011;69207;47.502;18.940;2023-06-10T02:35:56;3.67;;;3.12;;
65753;SDS011;69207;47.502;18.940;2023-06-10T02:36:59;3.08;;;2.60;;
65753;SDS011;69207;47.502;18.940;2023-06-10T02:38:03;6.65;;;2.72;;
65753;SDS011;69207;47.502;18.940;2023-06-10T02:39:06;7.28;;;3.12;;
65753;SDS011;69207;47.502;18.940;2023-06-10T02:40:09;4.78;;;3.00;;
65753;SDS011;69207;47.502;18.940;2023-06-10T02:41:12;6.25;;;2.78;;
65753;SDS011;69207;47.502;18.940;2023-06-10T02:42:15;6.45;;;3.05;;
65753;SDS011;69207;47.502;18.940;2023-06-10T02:43:18;3.33;;;2.80;;
65753;SDS011;69207;47.502;18.940;2023-06-10T02:44:21;5.10;;;2.72;;
65753;SDS011;69207;47.502;18.940;2023-06-10T02:45:24;5.60;;;2.70;;
65753;SDS011;69207;47.502;18.940;2023-06-10T02:46:27;6.28;;;2.47;;
65753;SDS011;69207;47.502;18.940;2023-06-10T02:47:31;6.45;;;2.87;;
65753;SDS011;69207;47.502;18.940;2023-06-10T02:48:40;10.50;;;2.83;;
65753;SDS011;69207;47.502;18.940;2023-06-10T02:49:45;5.40;;;2.70;;
65753;SDS011;69207;47.502;18.940;2023-06-10T02:50:48;5.32;;;2.85;;
65753;SDS011;69207;47.502;18.940;2023-06-10T02:51:50;4.22;;;2.40;;
65753;SDS011;69207;47.502;18.940;2023-06-10T02:52:56;9.38;;;2.65;;
65753;SDS011;69207;47.502;18.940;2023-06-10T02:53:59;6.20;;;3.10;;
65753;SDS011;69207;47.502;18.940;2023-06-10T02:55:02;4.87;;;3.25;;
65753;SDS011;69207;47.502;18.940;2023-06-10T02:56:05;4.37;;;3.00;;
65753;SDS011;69207;47.502;18.940;2023-06-10T02:57:08;3.70;;;2.92;;
65753;SDS011;69207;47.502;18.940;2023-06-10T02:58:12;4.85;;;3.40;;
65753;SDS011;69207;47.502;18.940;2023-06-10T02:59:15;7.25;;;3.40;;
65753;SDS011;69207;47.502;18.940;2023-06-10T03:00:18;6.45;;;3.80;;
65753;SDS011;69207;47.502;18.940;2023-06-10T03:01:22;6.95;;;4.47;;
65753;SDS011;69207;47.502;18.940;2023-06-10T03:02:25;7.30;;;3.72;;
65753;SDS011;69207;47.502;18.940;2023-06-10T03:03:31;8.88;;;3.92;;
65753;SDS011;69207;47.502;18.940;2023-06-10T03:04:37;6.43;;;4.25;;
65753;SDS011;69207;47.502;18.940;2023-06-10T03:05:40;10.32;;;4.10;;
65753;SDS011;69207;47.502;18.940;2023-06-10T03:06:43;5.53;;;4.68;;
65753;SDS011;69207;47.502;18.940;2023-06-10T03:07:48;8.27;;;4.40;;
65753;SDS011;69207;47.502;18.940;2023-06-10T03:08:50;6.30;;;4.70;;
65753;SDS011;69207;47.502;18.940;2023-06-10T03:09:53;6.30;;;4.35;;
65753;SDS011;69207;47.502;18.940;2023-06-10T03:10:56;5.22;;;3.85;;
65753;SDS011;69207;47.502;18.940;2023-06-10T03:11:58;9.43;;;4.05;;
65753;SDS011;69207;47.502;18.940;2023-06-10T03:13:03;10.23;;;4.40;;
65753;SDS011;69207;47.502;18.940;2023-06-10T03:14:06;6.20;;;4.20;;
65753;SDS011;69207;47.502;18.940;2023-06-10T03:15:08;5.12;;;4.40;;
65753;SDS011;69207;47.502;18.940;2023-06-10T03:16:12;4.90;;;4.20;;
65753;SDS011;69207;47.502;18.940;2023-06-10T03:17:14;7.82;;;4.47;;
65753;SDS011;69207;47.502;18.940;2023-06-10T03:18:17;8.20;;;4.37;;
65753;SDS011;69207;47.502;18.940;2023-06-10T03:19:20;6.22;;;4.15;;
65753;SDS011;69207;47.502;18.940;2023-06-10T03:20:23;5.90;;;4.20;;
65753;SDS011;69207;47.502;18.940;2023-06-10T03:21:28;5.18;;;3.87;;
65753;SDS011;69207;47.502;18.940;2023-06-10T03:22:30;5.28;;;4.30;;
65753;SDS011;69207;47.502;18.940;2023-06-10T03:23:33;7.18;;;4.03;;
65753;SDS011;69207;47.502;18.940;2023-06-10T03:24:36;8.30;;;3.92;;
65753;SDS011;69207;47.502;18.940;2023-06-10T03:25:42;6.05;;;3.97;;
65753;SDS011;69207;47.502;18.940;2023-06-10T03:26:45;10.57;;;4.03;;
65753;SDS011;69207;47.502;18.940;2023-06-10T03:27:48;7.62;;;3.80;;
65753;SDS011;69207;47.502;18.940;2023-06-10T03:28:51;6.07;;;4.10;;
65753;SDS011;69207;47.502;18.940;2023-06-10T03:29:54;7.82;;;3.80;;
65753;SDS011;69207;47.502;18.940;2023-06-10T03:30:57;6.37;;;4.37;;
65753;SDS011;69207;47.502;18.940;2023-06-10T03:32:00;7.18;;;4.10;;
65753;SDS011;69207;47.502;18.940;2023-06-10T03:33:02;9.13;;;3.83;;
65753;SDS011;69207;47.502;18.940;2023-06-10T03:34:08;10.45;;;4.28;;
65753;SDS011;69207;47.502;18.940;2023-06-10T03:35:10;8.20;;;4.10;;
65753;SDS011;69207;47.502;18.940;2023-06-10T03:36:14;7.07;;;4.30;;
65753;SDS011;69207;47.502;18.940;2023-06-10T03:37:17;7.35;;;4.10;;
65753;SDS011;69207;47.502;18.940;2023-06-10T03:38:20;6.75;;;4.47;;
65753;SDS011;69207;47.502;18.940;2023-06-10T03:39:23;8.43;;;4.28;;
65753;SDS011;69207;47.502;18.940;2023-06-10T03:40:26;9.77;;;4.40;;
65753;SDS011;69207;47.502;18.940;2023-06-10T03:41:29;5.65;;;3.83;;
65753;SDS011;69207;47.502;18.940;2023-06-10T03:42:34;7.07;;;4.72;;
65753;SDS011;69207;47.502;18.940;2023-06-10T03:43:37;6.20;;;4.80;;
65753;SDS011;69207;47.502;18.940;2023-06-10T03:44:42;9.05;;;4.80;;
65753;SDS011;69207;47.502;18.940;2023-06-10T03:45:45;9.57;;;5.10;;
65753;SDS011;69207;47.502;18.940;2023-06-10T03:46:48;7.37;;;4.75;;
65753;SDS011;69207;47.502;18.940;2023-06-10T03:47:51;6.30;;;5.00;;
65753;SDS011;69207;47.502;18.940;2023-06-10T03:48:54;6.43;;;5.20;;
65753;SDS011;69207;47.502;18.940;2023-06-10T03:49:58;5.60;;;4.70;;
65753;SDS011;69207;47.502;18.940;2023-06-10T03:51:00;5.28;;;4.55;;
65753;SDS011;69207;47.502;18.940;2023-06-10T03:52:03;7.22;;;4.57;;
65753;SDS011;69207;47.502;18.940;2023-06-10T03:53:07;8.23;;;4.62;;
65753;SDS011;69207;47.502;18.940;2023-06-10T03:54:09;4.65;;;4.15;;
65753;SDS011;69207;47.502;18.940;2023-06-10T03:55:12;5.70;;;4.68;;
65753;SDS011;69207;47.502;18.940;2023-06-10T03:56:15;6.00;;;4.78;;
65753;SDS011;69207;47.502;18.940;2023-06-10T03:57:18;6.45;;;4.97;;
65753;SDS011;69207;47.502;18.940;2023-06-10T03:58:21;9.15;;;4.82;;
65753;SDS011;69207;47.502;18.940;2023-06-10T03:59:24;5.82;;;5.15;;
65753;SDS011;69207;47.502;18.940;2023-06-10T04:00:26;7.87;;;4.53;;
65753;SDS011;69207;47.502;18.940;2023-06-10T04:01:29;7.45;;;4.55;;
65753;SDS011;69207;47.502;18.940;2023-06-10T04:02:31;7.22;;;4.93;;
65753;SDS011;69207;47.502;18.940;2023-06-10T04:03:35;8.52;;;4.45;;
65753;SDS011;69207;47.502;18.940;2023-06-10T04:04:37;5.70;;;4.70;;
65753;SDS011;69207;47.502;18.940;2023-06-10T04:05:40;8.00;;;5.37;;
65753;SDS011;69207;47.502;18.940;2023-06-10T04:06:44;6.43;;;5.15;;
65753;SDS011;69207;47.502;18.940;2023-06-10T04:07:46;6.07;;;5.10;;
65753;SDS011;69207;47.502;18.940;2023-06-10T04:08:50;10.38;;;5.32;;
65753;SDS011;69207;47.502;18.940;2023-06-10T04:09:53;6.18;;;5.57;;
65753;SDS011;69207;47.502;18.940;2023-06-10T04:10:56;7.75;;;5.57;;
65753;SDS011;69207;47.502;18.940;2023-06-10T04:11:59;8.02;;;5.53;;
65753;SDS011;69207;47.502;18.940;2023-06-10T04:13:02;10.20;;;5.35;;
65753;SDS011;69207;47.502;18.940;2023-06-10T04:14:05;13.15;;;5.35;;
65753;SDS011;69207;47.502;18.940;2023-06-10T04:15:08;7.05;;;5.20;;
65753;SDS011;69207;47.502;18.940;2023-06-10T04:16:11;9.15;;;5.10;;
65753;SDS011;69207;47.502;18.940;2023-06-10T04:17:14;8.88;;;5.25;;
65753;SDS011;69207;47.502;18.940;2023-06-10T04:18:17;7.22;;;5.03;;
65753;SDS011;69207;47.502;18.940;2023-06-10T04:19:20;7.47;;;5.00;;
65753;SDS011;69207;47.502;18.940;2023-06-10T04:20:23;7.37;;;4.60;;
65753;SDS011;69207;47.502;18.940;2023-06-10T04:21:26;13.75;;;4.70;;
65753;SDS011;69207;47.502;18.940;2023-06-10T04:22:29;6.00;;;4.57;;
65753;SDS011;69207;47.502;18.940;2023-06-10T04:23:32;6.55;;;4.75;;
65753;SDS011;69207;47.502;18.940;2023-06-10T04:24:35;11.40;;;4.80;;
65753;SDS011;69207;47.502;18.940;2023-06-10T04:25:38;5.10;;;4.57;;
65753;SDS011;69207;47.502;18.940;2023-06-10T04:26:40;5.57;;;4.45;;
65753;SDS011;69207;47.502;18.940;2023-06-10T04:27:43;5.53;;;4.10;;
65753;SDS011;69207;47.502;18.940;2023-06-10T04:28:46;5.75;;;3.65;;
65753;SDS011;69207;47.502;18.940;2023-06-10T04:29:49;3.92;;;3.08;;
65753;SDS011;69207;47.502;18.940;2023-06-10T04:30:51;3.97;;;3.58;;
65753;SDS011;69207;47.502;18.940;2023-06-10T04:31:54;5.00;;;3.67;;
65753;SDS011;69207;47.502;18.940;2023-06-10T04:32:57;10.35;;;3.80;;
65753;SDS011;69207;47.502;18.940;2023-06-10T04:34:00;4.45;;;4.05;;
65753;SDS011;69207;47.502;18.940;2023-06-10T04:35:03;4.75;;;3.80;;
65753;SDS011;69207;47.502;18.940;2023-06-10T04:36:07;4.10;;;3.70;;
65753;SDS011;69207;47.502;18.940;2023-06-10T04:37:10;3.65;;;3.35;;
65753;SDS011;69207;47.502;18.940;2023-06-10T04:38:13;3.70;;;3.25;;
65753;SDS011;69207;47.502;18.940;2023-06-10T04:39:16;4.47;;;3.75;;
65753;SDS011;69207;47.502;18.940;2023-06-10T04:40:19;4.20;;;3.50;;
65753;SDS011;69207;47.502;18.940;2023-06-10T04:41:22;4.78;;;3.95;;
65753;SDS011;69207;47.502;18.940;2023-06-10T04:42:25;4.80;;;3.28;;
65753;SDS011;69207;47.502;18.940;2023-06-10T04:43:28;3.90;;;3.47;;
65753;SDS011;69207;47.502;18.940;2023-06-10T04:44:33;4.20;;;3.30;;
65753;SDS011;69207;47.502;18.940;2023-06-10T04:45:35;3.22;;;2.92;;
65753;SDS011;69207;47.502;18.940;2023-06-10T04:46:38;3.90;;;3.37;;
65753;SDS011;69207;47.502;18.940;2023-06-10T04:47:41;4.25;;;3.30;;
65753;SDS011;69207;47.502;18.940;2023-06-10T04:48:44;5.10;;;3.20;;
65753;SDS011;69207;47.502;18.940;2023-06-10T04:49:49;4.07;;;3.33;;
65753;SDS011;69207;47.502;18.940;2023-06-10T04:50:52;5.37;;;3.10;;
65753;SDS011;69207;47.502;18.940;2023-06-10T04:51:55;4.72;;;3.20;;
65753;SDS011;69207;47.502;18.940;2023-06-10T04:52:58;4.65;;;3.28;;
65753;SDS011;69207;47.502;18.940;2023-06-10T04:54:01;4.70;;;2.85;;
65753;SDS011;69207;47.502;18.940;2023-06-10T04:55:06;3.45;;;2.87;;
65753;SDS011;69207;47.502;18.940;2023-06-10T04:56:10;3.05;;;2.75;;
65753;SDS011;69207;47.502;18.940;2023-06-10T04:57:13;4.55;;;3.10;;
65753;SDS011;69207;47.502;18.940;2023-06-10T04:58:15;4.97;;;3.08;;
65753;SDS011;69207;47.502;18.940;2023-06-10T04:59:19;4.87;;;2.83;;
65753;SDS011;69207;47.502;18.940;2023-06-10T05:00:21;4.50;;;2.53;;
65753;SDS011;69207;47.502;18.940;2023-06-10T05:01:24;3.58;;;2.95;;
65753;SDS011;69207;47.502;18.940;2023-06-10T05:02:28;7.07;;;3.58;;
65753;SDS011;69207;47.502;18.940;2023-06-10T05:03:30;2.97;;;2.65;;
65753;SDS011;69207;47.502;18.940;2023-06-10T05:04:34;3.53;;;2.70;;
65753;SDS011;69207;47.502;18.940;2023-06-10T05:05:36;5.15;;;3.05;;
65753;SDS011;69207;47.502;18.940;2023-06-10T05:06:39;3.37;;;3.08;;
65753;SDS011;69207;47.502;18.940;2023-06-10T05:07:42;2.90;;;2.60;;
65753;SDS011;69207;47.502;18.940;2023-06-10T05:08:44;8.45;;;3.15;;
65753;SDS011;69207;47.502;18.940;2023-06-10T05:09:47;3.92;;;3.05;;
65753;SDS011;69207;47.502;18.940;2023-06-10T05:10:50;3.87;;;3.05;;
65753;SDS011;69207;47.502;18.940;2023-06-10T05:11:54;3.35;;;3.00;;
65753;SDS011;69207;47.502;18.940;2023-06-10T05:12:57;4.68;;;3.47;;
65753;SDS011;69207;47.502;18.940;2023-06-10T05:14:00;4.70;;;3.20;;
65753;SDS011;69207;47.502;18.940;2023-06-10T05:15:03;4.60;;;3.05;;
65753;SDS011;69207;47.502;18.940;2023-06-10T05:16:06;3.90;;;3.40;;
65753;SDS011;69207;47.502;18.940;2023-06-10T05:17:10;5.55;;;3.08;;
65753;SDS011;69207;47.502;18.940;2023-06-10T05:18:12;5.50;;;3.45;;
65753;SDS011;69207;47.502;18.940;2023-06-10T05:19:15;5.78;;;3.05;;
65753;SDS011;69207;47.502;18.940;2023-06-10T05:20:18;6.32;;;3.92;;
65753;SDS011;69207;47.502;18.940;2023-06-10T05:21:22;5.37;;;3.25;;
65753;SDS011;69207;47.502;18.940;2023-06-10T05:22:24;6.18;;;3.62;;
65753;SDS011;69207;47.502;18.940;2023-06-10T05:23:27;5.10;;;3.37;;
65753;SDS011;69207;47.502;18.940;2023-06-10T05:24:30;4.97;;;3.10;;
65753;SDS011;69207;47.502;18.940;2023-06-10T05:25:33;4.57;;;3.10;;
65753;SDS011;69207;47.502;18.940;2023-06-10T05:26:36;4.53;;;2.87;;
65753;SDS011;69207;47.502;18.940;2023-06-10T05:27:41;3.58;;;2.87;;
65753;SDS011;69207;47.502;18.940;2023-06-10T05:28:44;3.50;;;3.20;;
65753;SDS011;69207;47.502;18.940;2023-06-10T05:29:47;3.60;;;3.15;;
65753;SDS011;69207;47.502;18.940;2023-06-10T05:30:50;3.75;;;3.20;;
65753;SDS011;69207;47.502;18.940;2023-06-10T05:31:53;4.87;;;3.12;;
65753;SDS011;69207;47.502;18.940;2023-06-10T05:32:59;6.18;;;3.25;;
65753;SDS011;69207;47.502;18.940;2023-06-10T05:34:02;3.53;;;3.20;;
65753;SDS011;69207;47.502;18.940;2023-06-10T05:35:05;5.15;;;3.30;;
65753;SDS011;69207;47.502;18.940;2023-06-10T05:36:09;6.37;;;3.53;;
65753;SDS011;69207;47.502;18.940;2023-06-10T05:37:12;6.43;;;3.53;;
65753;SDS011;69207;47.502;18.940;2023-06-10T05:38:16;4.30;;;3.30;;
65753;SDS011;69207;47.502;18.940;2023-06-10T05:39:18;3.55;;;3.00;;
65753;SDS011;69207;47.502;18.940;2023-06-10T05:40:21;3.92;;;3.53;;
65753;SDS011;69207;47.502;18.940;2023-06-10T05:41:24;4.20;;;3.33;;
65753;SDS011;69207;47.502;18.940;2023-06-10T05:42:27;3.28;;;2.97;;
65753;SDS011;69207;47.502;18.940;2023-06-10T05:43:30;3.65;;;3.03;;
65753;SDS011;69207;47.502;18.940;2023-06-10T05:44:33;4.40;;;3.50;;
65753;SDS011;69207;47.502;18.940;2023-06-10T05:45:36;3.95;;;3.55;;
65753;SDS011;69207;47.502;18.940;2023-06-10T05:46:39;4.47;;;3.42;;
65753;SDS011;69207;47.502;18.940;2023-06-10T05:47:42;5.05;;;3.50;;
65753;SDS011;69207;47.502;18.940;2023-06-10T05:48:45;4.43;;;3.50;;
65753;SDS011;69207;47.502;18.940;2023-06-10T05:49:48;3.75;;;3.42;;
65753;SDS011;69207;47.502;18.940;2023-06-10T05:50:52;4.75;;;3.55;;
65753;SDS011;69207;47.502;18.940;2023-06-10T05:51:55;4.75;;;3.55;;
65753;SDS011;69207;47.502;18.940;2023-06-10T05:52:59;4.68;;;3.25;;
65753;SDS011;69207;47.502;18.940;2023-06-10T05:54:02;6.37;;;3.80;;
65753;SDS011;69207;47.502;18.940;2023-06-10T05:55:05;5.37;;;3.37;;
65753;SDS011;69207;47.502;18.940;2023-06-10T05:56:09;3.72;;;3.10;;
65753;SDS011;69207;47.502;18.940;2023-06-10T05:57:12;4.15;;;3.25;;
65753;SDS011;69207;47.502;18.940;2023-06-10T05:58:15;5.78;;;3.15;;
65753;SDS011;69207;47.502;18.940;2023-06-10T05:59:18;4.47;;;3.42;;
65753;SDS011;69207;47.502;18.940;2023-06-10T06:00:21;3.87;;;3.47;;
65753;SDS011;69207;47.502;18.940;2023-06-10T06:01:23;4.22;;;3.67;;
65753;SDS011;69207;47.502;18.940;2023-06-10T06:02:26;4.07;;;3.42;;
65753;SDS011;69207;47.502;18.940;2023-06-10T06:03:29;5.47;;;3.33;;
65753;SDS011;69207;47.502;18.940;2023-06-10T06:04:33;4.78;;;3.60;;
65753;SDS011;69207;47.502;18.940;2023-06-10T06:05:36;4.95;;;3.10;;
65753;SDS011;69207;47.502;18.940;2023-06-10T06:06:40;6.95;;;3.60;;
65753;SDS011;69207;47.502;18.940;2023-06-10T06:07:43;10.48;;;3.90;;
65753;SDS011;69207;47.502;18.940;2023-06-10T06:08:46;5.75;;;3.33;;
65753;SDS011;69207;47.502;18.940;2023-06-10T06:09:48;5.62;;;3.22;;
65753;SDS011;69207;47.502;18.940;2023-06-10T06:10:51;5.87;;;3.65;;
65753;SDS011;69207;47.502;18.940;2023-06-10T06:11:54;4.43;;;3.62;;
65753;SDS011;69207;47.502;18.940;2023-06-10T06:12:56;5.68;;;3.55;;
65753;SDS011;69207;47.502;18.940;2023-06-10T06:13:59;4.82;;;3.33;;
65753;SDS011;69207;47.502;18.940;2023-06-10T06:15:02;5.12;;;3.53;;
65753;SDS011;69207;47.502;18.940;2023-06-10T06:16:06;6.62;;;3.90;;
65753;SDS011;69207;47.502;18.940;2023-06-10T06:17:08;5.57;;;3.55;;
65753;SDS011;69207;47.502;18.940;2023-06-10T06:18:11;4.53;;;3.55;;
65753;SDS011;69207;47.502;18.940;2023-06-10T06:19:14;4.22;;;3.60;;
65753;SDS011;69207;47.502;18.940;2023-06-10T06:20:18;7.95;;;3.70;;